Terminal Aerodrome Forecast
Issued by NWS

Home | Current Version | Previous Version | Text Only | Print | Product List | Glossary On
Versions: 1 2 3 4 5 6 7 8 9 10 11 12 13 14 15 16 17 18 19 20
000
FTUS46 KSEW 271900 AAA
TAFHQM
TAF AMD
KHQM 271931Z 2720/2818 23012KT P6SM FEW006
     FM272100 22010KT P6SM SCT250
     FM280400 25010KT P6SM OVC005
     FM280900 25008KT 2SM BR OVC002=

USA.gov is the U.S. government's official web portal to all federal, state and local government web resources and services.